sensor_id;sensor_type;location;lat;lon;timestamp;pressure;altitude;pressure_sealevel;temperature;humidity
79584;BME280;69053;57.338;18.700;2023-12-20T00:02:29;99916.97;;;4.69;70.49
79584;BME280;69053;57.338;18.700;2023-12-20T00:05:30;99911.94;;;4.59;70.48
79584;BME280;69053;57.338;18.700;2023-12-20T00:08:32;99911.91;;;4.53;70.41
79584;BME280;69053;57.338;18.700;2023-12-20T00:11:32;99921.84;;;4.52;71.18
79584;BME280;69053;57.338;18.700;2023-12-20T00:14:33;99912.72;;;4.53;71.21
79584;BME280;69053;57.338;18.700;2023-12-20T00:17:33;99907.72;;;4.50;70.82
79584;BME280;69053;57.338;18.700;2023-12-20T00:20:34;99894.84;;;4.45;70.41
79584;BME280;69053;57.338;18.700;2023-12-20T00:23:34;99904.09;;;4.36;71.03
79584;BME280;69053;57.338;18.700;2023-12-20T00:26:35;99893.06;;;4.31;70.93
79584;BME280;69053;57.338;18.700;2023-12-20T00:29:35;99897.19;;;4.27;70.58
79584;BME280;69053;57.338;18.700;2023-12-20T00:32:35;99903.16;;;4.22;70.38
79584;BME280;69053;57.338;18.700;2023-12-20T00:35:36;99896.88;;;4.15;70.75
79584;BME280;69053;57.338;18.700;2023-12-20T00:38:36;99886.22;;;4.07;71.20
79584;BME280;69053;57.338;18.700;2023-12-20T00:41:37;99894.88;;;4.02;71.22
79584;BME280;69053;57.338;18.700;2023-12-20T00:44:37;99901.69;;;3.98;71.13
79584;BME280;69053;57.338;18.700;2023-12-20T00:47:38;99902.72;;;3.97;71.45
79584;BME280;69053;57.338;18.700;2023-12-20T00:50:38;99893.59;;;3.98;71.66
79584;BME280;69053;57.338;18.700;2023-12-20T00:53:39;99900.00;;;3.97;71.29
79584;BME280;69053;57.338;18.700;2023-12-20T00:56:39;99892.53;;;3.92;71.26
79584;BME280;69053;57.338;18.700;2023-12-20T00:59:39;99895.16;;;3.86;70.94
79584;BME280;69053;57.338;18.700;2023-12-20T01:02:40;99885.53;;;3.77;71.02
79584;BME280;69053;57.338;18.700;2023-12-20T01:05:40;99894.56;;;3.69;71.25
79584;BME280;69053;57.338;18.700;2023-12-20T01:08:41;99892.00;;;3.61;70.84
79584;BME280;69053;57.338;18.700;2023-12-20T01:11:42;99887.84;;;3.58;71.29
79584;BME280;69053;57.338;18.700;2023-12-20T01:14:42;99889.47;;;3.59;71.26
79584;BME280;69053;57.338;18.700;2023-12-20T01:17:42;99886.41;;;3.62;71.21
79584;BME280;69053;57.338;18.700;2023-12-20T01:20:43;99880.75;;;3.57;71.00
79584;BME280;69053;57.338;18.700;2023-12-20T01:23:43;99882.19;;;3.53;71.02
79584;BME280;69053;57.338;18.700;2023-12-20T01:26:44;99872.81;;;3.49;71.00
79584;BME280;69053;57.338;18.700;2023-12-20T01:29:44;99880.63;;;3.44;70.88
79584;BME280;69053;57.338;18.700;2023-12-20T01:32:45;99861.06;;;3.35;71.10
79584;BME280;69053;57.338;18.700;2023-12-20T01:35:45;99859.50;;;3.26;71.09
79584;BME280;69053;57.338;18.700;2023-12-20T01:38:45;99857.13;;;3.16;70.99
79584;BME280;69053;57.338;18.700;2023-12-20T01:41:46;99857.22;;;3.08;71.20
79584;BME280;69053;57.338;18.700;2023-12-20T01:44:47;99855.28;;;3.02;71.04
79584;BME280;69053;57.338;18.700;2023-12-20T01:47:48;99857.34;;;2.99;70.73
79584;BME280;69053;57.338;18.700;2023-12-20T01:50:48;99856.88;;;2.96;70.94
79584;BME280;69053;57.338;18.700;2023-12-20T01:53:49;99853.16;;;2.97;70.93
79584;BME280;69053;57.338;18.700;2023-12-20T01:56:50;99848.41;;;2.99;70.96
79584;BME280;69053;57.338;18.700;2023-12-20T01:59:51;99844.53;;;3.02;71.04
79584;BME280;69053;57.338;18.700;2023-12-20T02:02:53;99837.28;;;3.02;70.61
79584;BME280;69053;57.338;18.700;2023-12-20T02:05:53;99835.44;;;3.03;70.76
79584;BME280;69053;57.338;18.700;2023-12-20T02:08:54;99833.78;;;3.02;70.96
79584;BME280;69053;57.338;18.700;2023-12-20T02:11:55;99825.44;;;2.96;70.76
79584;BME280;69053;57.338;18.700;2023-12-20T02:14:56;99823.75;;;2.95;71.40
79584;BME280;69053;57.338;18.700;2023-12-20T02:17:56;99823.84;;;3.02;70.96
79584;BME280;69053;57.338;18.700;2023-12-20T02:20:57;99820.97;;;3.04;71.56
79584;BME280;69053;57.338;18.700;2023-12-20T02:23:57;99818.16;;;3.12;71.38
79584;BME280;69053;57.338;18.700;2023-12-20T02:26:58;99814.44;;;3.13;71.44
79584;BME280;69053;57.338;18.700;2023-12-20T02:29:58;99803.94;;;3.18;71.78
79584;BME280;69053;57.338;18.700;2023-12-20T02:33:03;99808.94;;;3.21;71.51
79584;BME280;69053;57.338;18.700;2023-12-20T02:36:06;99799.47;;;3.25;71.98
79584;BME280;69053;57.338;18.700;2023-12-20T02:39:07;99805.38;;;3.35;71.55
79584;BME280;69053;57.338;18.700;2023-12-20T02:42:07;99800.06;;;3.42;71.83
79584;BME280;69053;57.338;18.700;2023-12-20T02:45:08;99795.94;;;3.46;71.58
79584;BME280;69053;57.338;18.700;2023-12-20T02:48:08;99803.78;;;3.41;71.53
79584;BME280;69053;57.338;18.700;2023-12-20T02:51:09;99796.91;;;3.38;71.50
79584;BME280;69053;57.338;18.700;2023-12-20T02:54:09;99798.31;;;3.34;71.63
79584;BME280;69053;57.338;18.700;2023-12-20T02:57:09;99806.75;;;3.31;71.69
79584;BME280;69053;57.338;18.700;2023-12-20T03:00:10;99802.44;;;3.30;71.68
79584;BME280;69053;57.338;18.700;2023-12-20T03:03:11;99804.66;;;3.27;71.60
79584;BME280;69053;57.338;18.700;2023-12-20T03:06:11;99807.09;;;3.22;71.45
79584;BME280;69053;57.338;18.700;2023-12-20T03:09:11;99805.34;;;3.14;71.53
79584;BME280;69053;57.338;18.700;2023-12-20T03:12:12;99795.72;;;3.05;71.66
79584;BME280;69053;57.338;18.700;2023-12-20T03:15:12;99813.38;;;2.92;71.38
79584;BME280;69053;57.338;18.700;2023-12-20T03:18:13;99804.78;;;2.82;71.42
79584;BME280;69053;57.338;18.700;2023-12-20T03:21:13;99808.56;;;2.73;71.52
79584;BME280;69053;57.338;18.700;2023-12-20T03:24:14;99812.03;;;2.67;71.75
79584;BME280;69053;57.338;18.700;2023-12-20T03:27:14;99810.63;;;2.71;71.83
79584;BME280;69053;57.338;18.700;2023-12-20T03:30:14;99809.63;;;2.72;71.80
79584;BME280;69053;57.338;18.700;2023-12-20T03:33:15;99815.72;;;2.66;71.42
79584;BME280;69053;57.338;18.700;2023-12-20T03:36:15;99805.25;;;2.56;71.40
79584;BME280;69053;57.338;18.700;2023-12-20T03:39:16;99823.31;;;2.47;71.40
79584;BME280;69053;57.338;18.700;2023-12-20T03:42:16;99821.59;;;2.39;71.77
79584;BME280;69053;57.338;18.700;2023-12-20T03:45:17;99822.59;;;2.38;71.86
79584;BME280;69053;57.338;18.700;2023-12-20T03:48:17;99824.91;;;2.41;71.81
79584;BME280;69053;57.338;18.700;2023-12-20T03:51:17;99829.56;;;2.48;71.75
79584;BME280;69053;57.338;18.700;2023-12-20T03:54:18;99832.44;;;2.46;71.65
79584;BME280;69053;57.338;18.700;2023-12-20T03:57:18;99820.09;;;2.37;71.62
79584;BME280;69053;57.338;18.700;2023-12-20T04:00:19;99814.44;;;2.32;71.45
79584;BME280;69053;57.338;18.700;2023-12-20T04:03:19;99810.44;;;2.28;71.36
79584;BME280;69053;57.338;18.700;2023-12-20T04:06:20;99806.09;;;2.27;71.58
79584;BME280;69053;57.338;18.700;2023-12-20T04:09:20;99814.25;;;2.33;72.18
79584;BME280;69053;57.338;18.700;2023-12-20T04:12:21;99797.50;;;2.46;72.94
79584;BME280;69053;57.338;18.700;2023-12-20T04:15:21;99798.31;;;2.61;72.82
79584;BME280;69053;57.338;18.700;2023-12-20T04:18:21;99797.44;;;2.76;73.27
79584;BME280;69053;57.338;18.700;2023-12-20T04:21:22;99790.19;;;2.91;72.99
79584;BME280;69053;57.338;18.700;2023-12-20T04:24:22;99784.88;;;2.98;73.07
79584;BME280;69053;57.338;18.700;2023-12-20T04:27:23;99777.28;;;3.02;73.09
79584;BME280;69053;57.338;18.700;2023-12-20T04:30:23;99781.69;;;3.09;72.96
79584;BME280;69053;57.338;18.700;2023-12-20T04:33:24;99781.13;;;3.14;73.15
79584;BME280;69053;57.338;18.700;2023-12-20T04:36:24;99772.22;;;3.13;72.89
79584;BME280;69053;57.338;18.700;2023-12-20T04:39:27;99770.56;;;3.12;72.94
79584;BME280;69053;57.338;18.700;2023-12-20T04:42:27;99770.47;;;3.06;73.04
79584;BME280;69053;57.338;18.700;2023-12-20T04:45:28;99761.38;;;3.07;73.34
79584;BME280;69053;57.338;18.700;2023-12-20T04:48:28;99762.47;;;3.12;74.14
79584;BME280;69053;57.338;18.700;2023-12-20T04:51:28;99758.66;;;3.22;73.83
79584;BME280;69053;57.338;18.700;2023-12-20T04:54:29;99758.06;;;3.26;73.73
79584;BME280;69053;57.338;18.700;2023-12-20T04:57:29;99772.81;;;3.30;73.61
79584;BME280;69053;57.338;18.700;2023-12-20T05:00:30;99761.00;;;3.31;73.63
79584;BME280;69053;57.338;18.700;2023-12-20T05:03:30;99770.94;;;3.31;73.91
79584;BME280;69053;57.338;18.700;2023-12-20T05:06:31;99773.06;;;3.35;73.93
79584;BME280;69053;57.338;18.700;2023-12-20T05:09:31;99776.47;;;3.44;73.97
79584;BME280;69053;57.338;18.700;2023-12-20T05:12:32;99784.25;;;3.61;74.53
79584;BME280;69053;57.338;18.700;2023-12-20T05:15:32;99786.50;;;3.79;74.81
79584;BME280;69053;57.338;18.700;2023-12-20T05:18:32;99783.13;;;3.98;74.86
79584;BME280;69053;57.338;18.700;2023-12-20T05:21:33;99776.88;;;4.26;74.30
79584;BME280;69053;57.338;18.700;2023-12-20T05:24:33;99781.50;;;4.32;74.74
79584;BME280;69053;57.338;18.700;2023-12-20T05:27:34;99779.13;;;4.50;74.55
79584;BME280;69053;57.338;18.700;2023-12-20T05:30:34;99779.13;;;4.57;74.23
79584;BME280;69053;57.338;18.700;2023-12-20T05:33:35;99772.13;;;4.63;74.24
79584;BME280;69053;57.338;18.700;2023-12-20T05:36:36;99769.03;;;4.66;74.12
79584;BME280;69053;57.338;18.700;2023-12-20T05:39:36;99771.97;;;4.71;74.03
79584;BME280;69053;57.338;18.700;2023-12-20T05:42:37;99763.03;;;4.77;74.39
79584;BME280;69053;57.338;18.700;2023-12-20T05:45:38;99749.56;;;4.84;74.28
79584;BME280;69053;57.338;18.700;2023-12-20T05:48:38;99746.47;;;4.87;74.92
79584;BME280;69053;57.338;18.700;2023-12-20T05:51:39;99736.53;;;4.94;74.54
79584;BME280;69053;57.338;18.700;2023-12-20T05:54:39;99736.56;;;5.01;74.43
79584;BME280;69053;57.338;18.700;2023-12-20T05:57:39;99731.38;;;5.06;73.76
79584;BME280;69053;57.338;18.700;2023-12-20T06:00:40;99727.41;;;5.08;73.65
79584;BME280;69053;57.338;18.700;2023-12-20T06:03:41;99720.38;;;5.07;73.86
79584;BME280;69053;57.338;18.700;2023-12-20T06:06:42;99721.19;;;5.08;73.61
79584;BME280;69053;57.338;18.700;2023-12-20T06:09:43;99713.09;;;5.08;73.87
79584;BME280;69053;57.338;18.700;2023-12-20T06:12:43;99712.91;;;5.10;73.96
79584;BME280;69053;57.338;18.700;2023-12-20T06:15:44;99708.75;;;5.14;74.02
79584;BME280;69053;57.338;18.700;2023-12-20T06:18:44;99705.63;;;5.17;73.75
79584;BME280;69053;57.338;18.700;2023-12-20T06:21:45;99708.13;;;5.18;73.96
79584;BME280;69053;57.338;18.700;2023-12-20T06:24:45;99704.41;;;5.19;73.61
79584;BME280;69053;57.338;18.700;2023-12-20T06:27:46;99706.91;;;5.14;74.25
79584;BME280;69053;57.338;18.700;2023-12-20T06:30:46;99705.44;;;5.18;74.43
79584;BME280;69053;57.338;18.700;2023-12-20T06:33:49;99699.66;;;5.35;74.31
79584;BME280;69053;57.338;18.700;2023-12-20T06:36:57;99694.66;;;5.38;74.11
79584;BME280;69053;57.338;18.700;2023-12-20T06:39:57;99690.91;;;5.39;73.90
79584;BME280;69053;57.338;18.700;2023-12-20T06:42:58;99698.59;;;5.36;74.12
79584;BME280;69053;57.338;18.700;2023-12-20T06:46:03;99699.63;;;5.28;74.64
79584;BME280;69053;57.338;18.700;2023-12-20T06:49:03;99691.13;;;5.24;75.04
79584;BME280;69053;57.338;18.700;2023-12-20T06:52:03;99696.31;;;5.33;74.04
79584;BME280;69053;57.338;18.700;2023-12-20T06:55:04;99684.25;;;5.29;74.34
79584;BME280;69053;57.338;18.700;2023-12-20T06:58:05;99690.47;;;5.22;74.22
79584;BME280;69053;57.338;18.700;2023-12-20T07:01:11;99685.94;;;5.23;73.80
79584;BME280;69053;57.338;18.700;2023-12-20T07:04:12;99686.94;;;5.22;73.97
79584;BME280;69053;57.338;18.700;2023-12-20T07:07:12;99684.88;;;5.17;74.03
79584;BME280;69053;57.338;18.700;2023-12-20T07:10:13;99682.59;;;5.14;74.10
79584;BME280;69053;57.338;18.700;2023-12-20T07:13:13;99684.47;;;5.20;74.36
79584;BME280;69053;57.338;18.700;2023-12-20T07:16:14;99681.13;;;5.18;74.01
79584;BME280;69053;57.338;18.700;2023-12-20T07:19:14;99672.44;;;5.23;74.63
79584;BME280;69053;57.338;18.700;2023-12-20T07:22:15;99665.97;;;5.31;74.20
79584;BME280;69053;57.338;18.700;2023-12-20T07:25:15;99652.06;;;5.34;74.35
79584;BME280;69053;57.338;18.700;2023-12-20T07:28:16;99653.09;;;5.39;74.10
79584;BME280;69053;57.338;18.700;2023-12-20T07:31:16;99648.53;;;5.40;73.76
79584;BME280;69053;57.338;18.700;2023-12-20T07:34:17;99647.09;;;5.37;73.87
79584;BME280;69053;57.338;18.700;2023-12-20T07:37:17;99644.78;;;5.34;73.63
79584;BME280;69053;57.338;18.700;2023-12-20T07:40:18;99638.97;;;5.31;73.85
79584;BME280;69053;57.338;18.700;2023-12-20T07:43:18;99645.63;;;5.28;73.76
79584;BME280;69053;57.338;18.700;2023-12-20T07:46:20;99636.69;;;5.28;73.52
79584;BME280;69053;57.338;18.700;2023-12-20T07:49:22;99637.75;;;5.26;73.47
79584;BME280;69053;57.338;18.700;2023-12-20T07:52:23;99636.06;;;5.25;73.99
79584;BME280;69053;57.338;18.700;2023-12-20T07:55:23;99622.56;;;5.25;73.97
79584;BME280;69053;57.338;18.700;2023-12-20T07:58:24;99621.94;;;5.23;73.85
79584;BME280;69053;57.338;18.700;2023-12-20T08:01:24;99636.28;;;5.24;73.87
79584;BME280;69053;57.338;18.700;2023-12-20T08:04:25;99631.94;;;5.23;73.60
79584;BME280;69053;57.338;18.700;2023-12-20T08:07:25;99629.44;;;5.21;73.81
79584;BME280;69053;57.338;18.700;2023-12-20T08:10:25;99627.34;;;5.17;74.23
79584;BME280;69053;57.338;18.700;2023-12-20T08:13:27;99622.56;;;5.25;74.00
79584;BME280;69053;57.338;18.700;2023-12-20T08:16:27;99630.25;;;5.29;73.80
79584;BME280;69053;57.338;18.700;2023-12-20T08:19:28;99627.75;;;5.34;73.76
79584;BME280;69053;57.338;18.700;2023-12-20T08:22:28;99623.38;;;5.33;73.91
79584;BME280;69053;57.338;18.700;2023-12-20T08:25:29;99631.50;;;5.33;73.92
79584;BME280;69053;57.338;18.700;2023-12-20T08:28:29;99627.97;;;5.39;73.76
79584;BME280;69053;57.338;18.700;2023-12-20T08:31:31;99625.47;;;5.44;74.06
79584;BME280;69053;57.338;18.700;2023-12-20T08:34:31;99629.41;;;5.41;74.19
79584;BME280;69053;57.338;18.700;2023-12-20T08:37:32;99632.75;;;5.43;74.25
79584;BME280;69053;57.338;18.700;2023-12-20T08:40:32;99621.28;;;5.55;74.13
79584;BME280;69053;57.338;18.700;2023-12-20T08:43:35;99618.19;;;5.64;73.85
79584;BME280;69053;57.338;18.700;2023-12-20T08:46:36;99615.25;;;5.73;73.54
79584;BME280;69053;57.338;18.700;2023-12-20T08:49:36;99611.28;;;5.75;73.45
79584;BME280;69053;57.338;18.700;2023-12-20T08:52:37;99611.06;;;5.77;73.52
79584;BME280;69053;57.338;18.700;2023-12-20T08:55:37;99603.75;;;5.91;73.16
79584;BME280;69053;57.338;18.700;2023-12-20T08:58:38;99596.47;;;5.98;73.17
79584;BME280;69053;57.338;18.700;2023-12-20T09:01:38;99593.34;;;6.01;73.12
79584;BME280;69053;57.338;18.700;2023-12-20T09:04:38;99590.44;;;6.03;73.34
79584;BME280;69053;57.338;18.700;2023-12-20T09:07:39;99584.81;;;6.11;73.17
79584;BME280;69053;57.338;18.700;2023-12-20T09:10:39;99578.91;;;6.20;72.76
79584;BME280;69053;57.338;18.700;2023-12-20T09:13:40;99578.28;;;6.25;72.75
79584;BME280;69053;57.338;18.700;2023-12-20T09:16:40;99576.56;;;6.31;72.58
79584;BME280;69053;57.338;18.700;2023-12-20T09:19:41;99575.97;;;6.29;72.92
79584;BME280;69053;57.338;18.700;2023-12-20T09:22:42;99571.13;;;6.37;72.68
79584;BME280;69053;57.338;18.700;2023-12-20T09:25:42;99571.09;;;6.44;72.62
79584;BME280;69053;57.338;18.700;2023-12-20T09:28:43;99568.34;;;6.51;72.47
79584;BME280;69053;57.338;18.700;2023-12-20T09:31:43;99557.91;;;6.54;72.44
79584;BME280;69053;57.338;18.700;2023-12-20T09:34:44;99545.63;;;6.59;72.41
79584;BME280;69053;57.338;18.700;2023-12-20T09:37:45;99544.75;;;6.65;72.33
79584;BME280;69053;57.338;18.700;2023-12-20T09:40:47;99535.16;;;6.69;72.35
79584;BME280;69053;57.338;18.700;2023-12-20T09:43:48;99536.53;;;6.78;72.22
79584;BME280;69053;57.338;18.700;2023-12-20T09:46:49;99531.88;;;6.85;72.06
79584;BME280;69053;57.338;18.700;2023-12-20T09:49:51;99522.50;;;6.88;71.79
79584;BME280;69053;57.338;18.700;2023-12-20T09:52:53;99493.34;;;6.90;71.92
79584;BME280;69053;57.338;18.700;2023-12-20T09:55:54;99486.19;;;6.95;71.96
79584;BME280;69053;57.338;18.700;2023-12-20T09:58:54;99475.75;;;6.99;71.65
79584;BME280;69053;57.338;18.700;2023-12-20T10:01:55;99469.91;;;7.02;71.70
79584;BME280;69053;57.338;18.700;2023-12-20T10:04:57;99462.59;;;7.03;71.74
79584;BME280;69053;57.338;18.700;2023-12-20T10:07:58;99452.59;;;7.03;71.30
79584;BME280;69053;57.338;18.700;2023-12-20T10:10:59;99453.06;;;7.00;71.46
79584;BME280;69053;57.338;18.700;2023-12-20T10:14:03;99452.81;;;7.02;71.60
79584;BME280;69053;57.338;18.700;2023-12-20T10:17:04;99437.78;;;7.06;71.27
79584;BME280;69053;57.338;18.700;2023-12-20T10:20:05;99437.56;;;7.07;71.52
79584;BME280;69053;57.338;18.700;2023-12-20T10:23:11;99432.88;;;7.14;71.69
79584;BME280;69053;57.338;18.700;2023-12-20T10:26:26;99422.44;;;7.18;71.80
79584;BME280;69053;57.338;18.700;2023-12-20T10:29:26;99409.03;;;7.23;71.07
79584;BME280;69053;57.338;18.700;2023-12-20T10:32:27;99401.91;;;7.29;70.97
79584;BME280;69053;57.338;18.700;2023-12-20T10:35:28;99402.28;;;7.32;70.98
79584;BME280;69053;57.338;18.700;2023-12-20T10:38:28;99389.69;;;7.38;70.85
79584;BME280;69053;57.338;18.700;2023-12-20T10:41:32;99391.38;;;7.39;71.21
79584;BME280;69053;57.338;18.700;2023-12-20T10:44:32;99385.25;;;7.44;71.43
79584;BME280;69053;57.338;18.700;2023-12-20T10:47:34;99383.38;;;7.44;71.06
79584;BME280;69053;57.338;18.700;2023-12-20T10:50:36;99369.59;;;7.46;71.26
79584;BME280;69053;57.338;18.700;2023-12-20T10:53:39;99370.78;;;7.50;70.80
79584;BME280;69053;57.338;18.700;2023-12-20T10:56:41;99368.31;;;7.48;71.36
79584;BME280;69053;57.338;18.700;2023-12-20T10:59:43;99360.19;;;7.48;71.36
79584;BME280;69053;57.338;18.700;2023-12-20T11:02:49;99356.53;;;7.55;71.11
79584;BME280;69053;57.338;18.700;2023-12-20T11:06:03;99342.53;;;7.58;71.04
79584;BME280;69053;57.338;18.700;2023-12-20T11:12:21;99323.03;;;7.67;70.86
79584;BME280;69053;57.338;18.700;2023-12-20T11:15:26;99321.72;;;7.70;70.95
79584;BME280;69053;57.338;18.700;2023-12-20T11:18:30;99318.41;;;7.68;71.34
79584;BME280;69053;57.338;18.700;2023-12-20T11:21:31;99307.44;;;7.63;71.83
79584;BME280;69053;57.338;18.700;2023-12-20T11:24:32;99304.97;;;7.61;71.64
79584;BME280;69053;57.338;18.700;2023-12-20T11:27:34;99301.50;;;7.42;72.30
79584;BME280;69053;57.338;18.700;2023-12-20T11:30:50;99293.53;;;7.59;72.43
79584;BME280;69053;57.338;18.700;2023-12-20T11:33:51;99286.75;;;7.68;71.92
79584;BME280;69053;57.338;18.700;2023-12-20T11:36:57;99284.63;;;7.70;71.59
79584;BME280;69053;57.338;18.700;2023-12-20T11:40:08;99281.69;;;7.72;71.88
79584;BME280;69053;57.338;18.700;2023-12-20T11:43:11;99271.97;;;7.64;72.28
79584;BME280;69053;57.338;18.700;2023-12-20T11:46:12;99274.00;;;7.69;71.70
79584;BME280;69053;57.338;18.700;2023-12-20T11:49:12;99259.25;;;7.65;72.51
79584;BME280;69053;57.338;18.700;2023-12-20T11:52:13;99264.31;;;7.61;72.80
79584;BME280;69053;57.338;18.700;2023-12-20T11:55:13;99262.31;;;7.57;72.99
79584;BME280;69053;57.338;18.700;2023-12-20T11:58:14;99253.38;;;7.68;72.71
79584;BME280;69053;57.338;18.700;2023-12-20T12:01:16;99246.22;;;7.74;72.24
79584;BME280;69053;57.338;18.700;2023-12-20T12:04:17;99238.66;;;7.76;72.22
79584;BME280;69053;57.338;18.700;2023-12-20T12:07:17;99235.22;;;7.80;71.98
79584;BME280;69053;57.338;18.700;2023-12-20T12:10:18;99220.63;;;7.81;72.09
79584;BME280;69053;57.338;18.700;2023-12-20T12:13:18;99219.34;;;7.84;72.55
79584;BME280;69053;57.338;18.700;2023-12-20T12:16:22;99210.16;;;7.85;72.51
79584;BME280;69053;57.338;18.700;2023-12-20T12:19:23;99217.81;;;7.88;72.14
79584;BME280;69053;57.338;18.700;2023-12-20T12:22:24;99212.03;;;7.96;72.56
79584;BME280;69053;57.338;18.700;2023-12-20T12:25:29;99205.44;;;8.04;72.14
79584;BME280;69053;57.338;18.700;2023-12-20T12:28:30;99206.84;;;7.95;71.95
79584;BME280;69053;57.338;18.700;2023-12-20T12:31:32;99206.75;;;8.01;72.44
79584;BME280;69053;57.338;18.700;2023-12-20T12:34:34;99196.81;;;7.83;72.45
79584;BME280;69053;57.338;18.700;2023-12-20T12:37:37;99198.59;;;7.89;72.01
79584;BME280;69053;57.338;18.700;2023-12-20T12:40:38;99196.81;;;7.95;71.54
79584;BME280;69053;57.338;18.700;2023-12-20T12:43:39;99191.97;;;7.97;72.16
79584;BME280;69053;57.338;18.700;2023-12-20T12:46:39;99188.91;;;7.94;71.76
79584;BME280;69053;57.338;18.700;2023-12-20T12:49:40;99187.88;;;7.95;71.64
79584;BME280;69053;57.338;18.700;2023-12-20T12:52:41;99188.22;;;8.10;71.59
79584;BME280;69053;57.338;18.700;2023-12-20T12:55:41;99194.22;;;7.88;71.96
79584;BME280;69053;57.338;18.700;2023-12-20T12:58:42;99185.84;;;7.90;71.39
79584;BME280;69053;57.338;18.700;2023-12-20T13:01:42;99182.69;;;7.93;71.82
79584;BME280;69053;57.338;18.700;2023-12-20T13:04:43;99187.19;;;7.87;71.50
79584;BME280;69053;57.338;18.700;2023-12-20T13:07:43;99182.22;;;7.73;71.63
79584;BME280;69053;57.338;18.700;2023-12-20T13:10:45;99179.75;;;7.83;71.02
79584;BME280;69053;57.338;18.700;2023-12-20T13:13:46;99175.72;;;7.85;71.52
79584;BME280;69053;57.338;18.700;2023-12-20T13:16:46;99180.31;;;7.73;71.65
79584;BME280;69053;57.338;18.700;2023-12-20T13:19:47;99185.50;;;7.63;71.02
79584;BME280;69053;57.338;18.700;2023-12-20T13:22:48;99171.94;;;7.63;70.61
79584;BME280;69053;57.338;18.700;2023-12-20T13:25:48;99170.78;;;7.59;70.55
79584;BME280;69053;57.338;18.700;2023-12-20T13:28:49;99164.53;;;7.46;70.31
79584;BME280;69053;57.338;18.700;2023-12-20T13:31:49;99155.91;;;7.49;69.99
79584;BME280;69053;57.338;18.700;2023-12-20T13:34:49;99157.66;;;7.32;70.55
79584;BME280;69053;57.338;18.700;2023-12-20T13:37:50;99148.09;;;7.18;70.26
79584;BME280;69053;57.338;18.700;2023-12-20T13:40:51;99143.75;;;7.28;69.89
79584;BME280;69053;57.338;18.700;2023-12-20T13:43:51;99148.69;;;7.20;69.54
79584;BME280;69053;57.338;18.700;2023-12-20T13:46:52;99142.28;;;7.02;70.16
79584;BME280;69053;57.338;18.700;2023-12-20T13:49:53;99133.25;;;7.08;69.84
79584;BME280;69053;57.338;18.700;2023-12-20T13:52:53;99129.56;;;7.03;69.69
79584;BME280;69053;57.338;18.700;2023-12-20T13:55:54;99134.75;;;7.04;70.13
79584;BME280;69053;57.338;18.700;2023-12-20T13:58:54;99139.44;;;6.97;69.73
79584;BME280;69053;57.338;18.700;2023-12-20T14:01:55;99136.88;;;7.02;69.82
79584;BME280;69053;57.338;18.700;2023-12-20T14:04:57;99133.13;;;7.03;69.60
79584;BME280;69053;57.338;18.700;2023-12-20T14:07:57;99133.72;;;7.05;70.17
79584;BME280;69053;57.338;18.700;2023-12-20T14:10:58;99128.97;;;7.01;70.10
79584;BME280;69053;57.338;18.700;2023-12-20T14:13:58;99133.13;;;7.03;70.42
79584;BME280;69053;57.338;18.700;2023-12-20T14:16:59;99130.88;;;7.00;70.41
79584;BME280;69053;57.338;18.700;2023-12-20T14:19:59;99135.22;;;7.01;70.54
79584;BME280;69053;57.338;18.700;2023-12-20T14:23:01;99136.66;;;7.04;70.38
79584;BME280;69053;57.338;18.700;2023-12-20T14:26:01;99124.88;;;6.98;70.29
79584;BME280;69053;57.338;18.700;2023-12-20T14:29:02;99119.47;;;6.98;70.48
79584;BME280;69053;57.338;18.700;2023-12-20T14:32:04;99115.31;;;6.95;70.21
79584;BME280;69053;57.338;18.700;2023-12-20T14:35:06;99114.38;;;6.90;70.20
79584;BME280;69053;57.338;18.700;2023-12-20T14:38:08;99111.75;;;6.83;70.51
79584;BME280;69053;57.338;18.700;2023-12-20T14:41:09;99114.91;;;6.80;70.61
79584;BME280;69053;57.338;18.700;2023-12-20T14:44:09;99115.25;;;6.72;71.16
79584;BME280;69053;57.338;18.700;2023-12-20T14:47:10;99105.25;;;6.72;71.13
79584;BME280;69053;57.338;18.700;2023-12-20T14:50:11;99102.34;;;6.74;71.05
79584;BME280;69053;57.338;18.700;2023-12-20T14:53:17;99107.50;;;6.75;71.38
79584;BME280;69053;57.338;18.700;2023-12-20T14:56:19;99107.50;;;6.75;71.52
79584;BME280;69053;57.338;18.700;2023-12-20T14:59:20;99102.47;;;6.79;71.10
79584;BME280;69053;57.338;18.700;2023-12-20T15:02:22;99109.38;;;6.75;71.18
79584;BME280;69053;57.338;18.700;2023-12-20T15:05:22;99102.06;;;6.75;71.72
79584;BME280;69053;57.338;18.700;2023-12-20T15:08:23;99101.31;;;6.56;72.47
79584;BME280;69053;57.338;18.700;2023-12-20T15:11:23;99093.44;;;6.55;72.60
79584;BME280;69053;57.338;18.700;2023-12-20T15:14:23;99083.63;;;6.72;71.85
79584;BME280;69053;57.338;18.700;2023-12-20T15:17:24;99081.63;;;6.80;71.64
79584;BME280;69053;57.338;18.700;2023-12-20T15:20:26;99075.41;;;6.79;71.56
79584;BME280;69053;57.338;18.700;2023-12-20T15:23:26;99073.97;;;6.76;71.65
79584;BME280;69053;57.338;18.700;2023-12-20T15:26:28;99067.38;;;6.72;71.83
79584;BME280;69053;57.338;18.700;2023-12-20T15:29:29;99068.91;;;6.80;71.72
79584;BME280;69053;57.338;18.700;2023-12-20T15:32:31;99070.44;;;6.76;71.76
79584;BME280;69053;57.338;18.700;2023-12-20T15:35:32;99066.53;;;6.72;72.14
79584;BME280;69053;57.338;18.700;2023-12-20T15:38:33;99074.31;;;6.80;71.92
79584;BME280;69053;57.338;18.700;2023-12-20T15:41:35;99073.75;;;6.78;71.57
79584;BME280;69053;57.338;18.700;2023-12-20T15:44:35;99065.75;;;6.83;71.84
79584;BME280;69053;57.338;18.700;2023-12-20T15:47:36;99065.25;;;6.74;71.54
79584;BME280;69053;57.338;18.700;2023-12-20T15:50:36;99064.09;;;6.82;71.24
79584;BME280;69053;57.338;18.700;2023-12-20T15:53:37;99067.03;;;6.81;71.09
79584;BME280;69053;57.338;18.700;2023-12-20T15:56:37;99068.69;;;6.82;71.01
79584;BME280;69053;57.338;18.700;2023-12-20T15:59:38;99066.22;;;6.80;70.59
79584;BME280;69053;57.338;18.700;2023-12-20T16:02:38;99057.50;;;6.78;70.61